Tim S. Dool — VGPY — position and weather

sailwx.info

Track history (hours):
 
Tides and Currents Weather Stations Pressure Air Temp Water Temp Dewpoint Dewpoint Depression Visibility Wind Speed Wind Dir Waves Ship Positions

Tim S. Dool

Last reported at 2014-Oct-31 18:00 UTC. Time now 2014-Oct-31 23:51 UTC.
Position N 43°18' W 078°18'.

Length 223 m; draft 6.4 m.

Type: Cargo ship. MMSI: 316001696.

Wind from 130 at 10 knots

Waves 0.5 meters (2 feet), 3 second period

Barometer 1010.0 mb
Air temperature 11.0 ° C
Visibility: greater than 5.4 NM

Date/timePositionNaut miles runAvg speedWind from/ knotsBaromVisibWave heightAir tempDewpointWater temp
2014-Oct-31 18:00N 43°18' W 078°18'7912.1 130 / 101010.0 5.4 0.511.0
2014-Oct-31 11:29N 43°55' W 076°42'1212.8
2014-Oct-31 10:34N 44°02' W 076°28'1212.1
2014-Oct-31 09:33N 44°12' W 076°18'92 7.0
2014-Oct-30 20:30N 45°04' W 074°32'9 9.4
2014-Oct-30 19:33N 45°09' W 074°23'1110.5
2014-Oct-30 18:33N 45°14' W 074°09'8 8.1
2014-Oct-30 17:33N 45°15' W 073°58'4 3.7
2014-Oct-30 16:33N 45°19' W 073°55'1 0.8
2014-Oct-30 15:33N 45°19' W 073°55'5 5.0
2014-Oct-30 14:33N 45°22' W 073°49'7 7.5
2014-Oct-30 13:33N 45°24' W 073°39'3 3.4
2014-Oct-30 12:33N 45°24' W 073°34'1 1.1
2014-Oct-30 11:33N 45°24' W 073°33'5 4.6
2014-Oct-30 10:33N 45°29' W 073°31'2 1.6
2014-Oct-30 09:33N 45°30' W 073°31'5 5.4
2014-Oct-30 08:33N 45°36' W 073°30'9 9.5
2014-Oct-30 07:33N 45°44' W 073°25'1110.6
2014-Oct-30 06:33N 45°53' W 073°15'1110.5
2014-Oct-30 05:33N 46°02' W 073°10'1410.2
2014-Oct-30 04:09N 46°12' W 072°53'711.5
2014-Oct-30 03:33N 46°15' W 072°45'10 9.4
2014-Oct-30 02:30N 46°20' W 072°33'0 0.0
2014-Oct-30 01:30N 46°20' W 072°33'0 0.0
2014-Oct-30 00:30N 46°20' W 072°33'0 0.0
2014-Oct-29 23:30N 46°20' W 072°33'0 0.0
2014-Oct-29 22:30N 46°20' W 072°33'0 0.0
2014-Oct-29 21:30N 46°20' W 072°33'0 0.0
2014-Oct-29 20:24N 46°20' W 072°33'0 0.0
2014-Oct-29 19:30N 46°20' W 072°33'0 0.0
2014-Oct-29 18:30N 46°20' W 072°33'0 0.0
2014-Oct-29 17:30N 46°20' W 072°33'0 0.0
2014-Oct-29 16:24N 46°20' W 072°33'0 0.0
2014-Oct-29 15:30N 46°20' W 072°33'0 0.0
2014-Oct-29 14:30N 46°20' W 072°33'0 0.0
2014-Oct-29 13:24N 46°20' W 072°33'0 0.0
2014-Oct-29 12:30N 46°20' W 072°33'0 0.0
2014-Oct-29 11:30N 46°20' W 072°33'0 0.0
2014-Oct-29 10:30N 46°20' W 072°33'0 0.0
2014-Oct-29 09:30N 46°20' W 072°33'0 0.0
2014-Oct-29 08:30N 46°20' W 072°33'0 0.0
2014-Oct-29 07:30N 46°20' W 072°33'0 0.0
2014-Oct-29 06:30N 46°20' W 072°33'0 0.0
2014-Oct-29 05:30N 46°20' W 072°33'0 0.0
2014-Oct-29 04:30N 46°20' W 072°33'0 0.0
2014-Oct-29 03:30N 46°20' W 072°33'0 0.0
2014-Oct-29 02:30N 46°20' W 072°33'0 0.0
2014-Oct-29 01:30N 46°20' W 072°33'0 0.0
2014-Oct-29 00:30N 46°20' W 072°33'0 0.0
2014-Oct-28 23:30N 46°20' W 072°33'0 0.0
2014-Oct-28 22:30N 46°20' W 072°33'0 0.0
2014-Oct-28 21:30N 46°20' W 072°33'0 0.0
2014-Oct-28 20:30N 46°20' W 072°33'0 0.0
2014-Oct-28 19:30N 46°20' W 072°33'3 3.5
2014-Oct-28 18:34N 46°17' W 072°36'10 8.9
2014-Oct-28 17:23N 46°13' W 072°49'1212.5
2014-Oct-28 16:28N 46°05' W 073°01'1111.8
2014-Oct-28 15:33N 45°57' W 073°12'1312.8
2014-Oct-28 14:33N 45°46' W 073°22'1212.3
2014-Oct-28 13:33N 45°35' W 073°30'6 5.9
2014-Oct-28 12:33N 45°30' W 073°31'2 2.0
2014-Oct-28 11:34N 45°28' W 073°30'4 4.1
2014-Oct-28 10:33N 45°24' W 073°34'1 1.0
2014-Oct-28 09:33N 45°24' W 073°35'4 4.1
2014-Oct-28 08:33N 45°25' W 073°41'9 9.3
2014-Oct-28 07:34N 45°21' W 073°53'3 2.7
2014-Oct-28 06:34N 45°19' W 073°55'1 0.8
2014-Oct-28 05:33N 45°18' W 073°56'4 3.8
2014-Oct-28 04:33N 45°15' W 073°59'9 9.5
2014-Oct-28 03:33N 45°14' W 074°12'1111.5
2014-Oct-28 02:33N 45°08' W 074°26'91 7.0
2014-Oct-27 13:31N 44°14' W 076°09'1111.3
2014-Oct-27 12:33N 44°07' W 076°22'8613.2
2014-Oct-27 06:00N 43°18' W 078°00'64 2.2 280 / 221009.0 1.5 8.0
2014-Oct-26 01:00N 42°48' W 079°18'24 3.5 240 / 201000.010.8 2.015.0
2014-Oct-25 18:00N 42°24' W 079°12'6312.7 240 / 351005.010.8 2.515.0
2014-Oct-25 13:00N 42°12' W 080°36'8712.4 230 / 91007.010.8 1.015.0
2014-Oct-25 06:00N 41°30' W 082°18'55 9.2 220 / 6212.010.8 13.0
2014-Oct-25 00:00N 42°18' W 082°54'18811.2 230 / 71011.010.8 15.0
2014-Oct-24 07:15N 45°25' W 083°12'7 5.8
2014-Oct-24 06:00N 45°18' W 083°12'2954.1 200 / 21014.010.8 8.0
2014-Oct-24 05:27N 45°42' W 083°35'1112.7
2014-Oct-24 04:33N 45°51' W 083°46'1411.2
2014-Oct-24 03:19N 46°03' W 083°56'15 8.5
2014-Oct-24 01:33N 46°14' W 084°11'6 6.1
2014-Oct-24 00:33N 46°20' W 084°13'4 7.4
2014-Oct-24 00:00N 46°24' W 084°12'7 8.8 150 / 61015.0 9.0
2014-Oct-23 23:13N 46°29' W 084°18'2 2.4
2014-Oct-23 22:14N 46°30' W 084°21'2 0.9
2014-Oct-23 20:24N 46°30' W 084°24'5 5.4
2014-Oct-23 19:24N 46°27' W 084°30'9 9.6
2014-Oct-23 18:31N 46°33' W 084°40'1212.6
2014-Oct-23 17:33N 46°42' W 084°50'1212.1
2014-Oct-23 16:33N 46°51' W 085°03'1512.6
2014-Oct-23 15:21N 46°58' W 085°23'1012.5
2014-Oct-23 14:33N 47°03' W 085°36'5 9.7
2014-Oct-23 14:00N 47°06' W 085°42'716.3 150 / 121015.010.8 1.0 8.0
2014-Oct-23 13:33N 47°08' W 085°52'1312.5
2014-Oct-23 12:33N 47°15' W 086°08'7210.9
2014-Oct-23 06:00N 48°00' W 087°30'   150 / 151016.010.8 1.5 8.0
Track history (hours):
 
Tides and Currents Weather Stations Pressure Air Temp Water Temp Dewpoint Dewpoint Depression Visibility Wind Speed Wind Dir Waves Ship Positions

Tim S. Dool

Last reported at 2014-Oct-31 18:00 UTC. Time now 2014-Oct-31 23:51 UTC.
Position N 43°18' W 078°18'.

Length 223 m; draft 6.4 m.

Type: Cargo ship. MMSI: 316001696.

Wind from 130 at 10 knots

Waves 0.5 meters (2 feet), 3 second period

Barometer 1010.0 mb
Air temperature 11.0 ° C
Visibility: greater than 5.4 NM

Date/timePositionNaut miles runAvg speedWind from/ knotsBaromVisibWave heightAir tempDewpointWater temp
2014-Oct-31 18:00N 43°18' W 078°18'7912.1 130 / 101010.0 5.4 0.511.0
2014-Oct-31 11:29N 43°55' W 076°42'1212.8
2014-Oct-31 10:34N 44°02' W 076°28'1212.1
2014-Oct-31 09:33N 44°12' W 076°18'92 7.0
2014-Oct-30 20:30N 45°04' W 074°32'9 9.4
2014-Oct-30 19:33N 45°09' W 074°23'1110.5
2014-Oct-30 18:33N 45°14' W 074°09'8 8.1
2014-Oct-30 17:33N 45°15' W 073°58'4 3.7
2014-Oct-30 16:33N 45°19' W 073°55'1 0.8
2014-Oct-30 15:33N 45°19' W 073°55'5 5.0
2014-Oct-30 14:33N 45°22' W 073°49'7 7.5
2014-Oct-30 13:33N 45°24' W 073°39'3 3.4
2014-Oct-30 12:33N 45°24' W 073°34'1 1.1
2014-Oct-30 11:33N 45°24' W 073°33'5 4.6
2014-Oct-30 10:33N 45°29' W 073°31'2 1.6
2014-Oct-30 09:33N 45°30' W 073°31'5 5.4
2014-Oct-30 08:33N 45°36' W 073°30'9 9.5
2014-Oct-30 07:33N 45°44' W 073°25'1110.6
2014-Oct-30 06:33N 45°53' W 073°15'1110.5
2014-Oct-30 05:33N 46°02' W 073°10'1410.2
2014-Oct-30 04:09N 46°12' W 072°53'711.5
2014-Oct-30 03:33N 46°15' W 072°45'10 9.4
2014-Oct-30 02:30N 46°20' W 072°33'0 0.0
2014-Oct-30 01:30N 46°20' W 072°33'0 0.0
2014-Oct-30 00:30N 46°20' W 072°33'0 0.0
2014-Oct-29 23:30N 46°20' W 072°33'0 0.0
2014-Oct-29 22:30N 46°20' W 072°33'0 0.0
2014-Oct-29 21:30N 46°20' W 072°33'0 0.0
2014-Oct-29 20:24N 46°20' W 072°33'0 0.0
2014-Oct-29 19:30N 46°20' W 072°33'0 0.0
2014-Oct-29 18:30N 46°20' W 072°33'0 0.0
2014-Oct-29 17:30N 46°20' W 072°33'0 0.0
2014-Oct-29 16:24N 46°20' W 072°33'0 0.0
2014-Oct-29 15:30N 46°20' W 072°33'0 0.0
2014-Oct-29 14:30N 46°20' W 072°33'0 0.0
2014-Oct-29 13:24N 46°20' W 072°33'0 0.0
2014-Oct-29 12:30N 46°20' W 072°33'0 0.0
2014-Oct-29 11:30N 46°20' W 072°33'0 0.0
2014-Oct-29 10:30N 46°20' W 072°33'0 0.0
2014-Oct-29 09:30N 46°20' W 072°33'0 0.0
2014-Oct-29 08:30N 46°20' W 072°33'0 0.0
2014-Oct-29 07:30N 46°20' W 072°33'0 0.0
2014-Oct-29 06:30N 46°20' W 072°33'0 0.0
2014-Oct-29 05:30N 46°20' W 072°33'0 0.0
2014-Oct-29 04:30N 46°20' W 072°33'0 0.0
2014-Oct-29 03:30N 46°20' W 072°33'0 0.0
2014-Oct-29 02:30N 46°20' W 072°33'0 0.0
2014-Oct-29 01:30N 46°20' W 072°33'0 0.0
2014-Oct-29 00:30N 46°20' W 072°33'0 0.0
2014-Oct-28 23:30N 46°20' W 072°33'0 0.0
2014-Oct-28 22:30N 46°20' W 072°33'0 0.0
2014-Oct-28 21:30N 46°20' W 072°33'0 0.0
2014-Oct-28 20:30N 46°20' W 072°33'0 0.0
2014-Oct-28 19:30N 46°20' W 072°33'3 3.5
2014-Oct-28 18:34N 46°17' W 072°36'10 8.9
2014-Oct-28 17:23N 46°13' W 072°49'1212.5
2014-Oct-28 16:28N 46°05' W 073°01'1111.8
2014-Oct-28 15:33N 45°57' W 073°12'1312.8
2014-Oct-28 14:33N 45°46' W 073°22'1212.3
2014-Oct-28 13:33N 45°35' W 073°30'6 5.9
2014-Oct-28 12:33N 45°30' W 073°31'2 2.0
2014-Oct-28 11:34N 45°28' W 073°30'4 4.1
2014-Oct-28 10:33N 45°24' W 073°34'1 1.0
2014-Oct-28 09:33N 45°24' W 073°35'4 4.1
2014-Oct-28 08:33N 45°25' W 073°41'9 9.3
2014-Oct-28 07:34N 45°21' W 073°53'3 2.7
2014-Oct-28 06:34N 45°19' W 073°55'1 0.8
2014-Oct-28 05:33N 45°18' W 073°56'4 3.8
2014-Oct-28 04:33N 45°15' W 073°59'9 9.5
2014-Oct-28 03:33N 45°14' W 074°12'1111.5
2014-Oct-28 02:33N 45°08' W 074°26'91 7.0
2014-Oct-27 13:31N 44°14' W 076°09'1111.3
2014-Oct-27 12:33N 44°07' W 076°22'8613.2
2014-Oct-27 06:00N 43°18' W 078°00'64 2.2 280 / 221009.0 1.5 8.0
2014-Oct-26 01:00N 42°48' W 079°18'24 3.5 240 / 201000.010.8 2.015.0
2014-Oct-25 18:00N 42°24' W 079°12'6312.7 240 / 351005.010.8 2.515.0
2014-Oct-25 13:00N 42°12' W 080°36'8712.4 230 / 91007.010.8 1.015.0
2014-Oct-25 06:00N 41°30' W 082°18'55 9.2 220 / 6212.010.8 13.0
2014-Oct-25 00:00N 42°18' W 082°54'18811.2 230 / 71011.010.8 15.0
2014-Oct-24 07:15N 45°25' W 083°12'7 5.8
2014-Oct-24 06:00N 45°18' W 083°12'2954.1 200 / 21014.010.8 8.0
2014-Oct-24 05:27N 45°42' W 083°35'1112.7
2014-Oct-24 04:33N 45°51' W 083°46'1411.2
2014-Oct-24 03:19N 46°03' W 083°56'15 8.5
2014-Oct-24 01:33N 46°14' W 084°11'6 6.1
2014-Oct-24 00:33N 46°20' W 084°13'4 7.4
2014-Oct-24 00:00N 46°24' W 084°12'7 8.8 150 / 61015.0 9.0
2014-Oct-23 23:13N 46°29' W 084°18'2 2.4
2014-Oct-23 22:14N 46°30' W 084°21'2 0.9
2014-Oct-23 20:24N 46°30' W 084°24'5 5.4
2014-Oct-23 19:24N 46°27' W 084°30'9 9.6
2014-Oct-23 18:31N 46°33' W 084°40'1212.6
2014-Oct-23 17:33N 46°42' W 084°50'1212.1
2014-Oct-23 16:33N 46°51' W 085°03'1512.6
2014-Oct-23 15:21N 46°58' W 085°23'1012.5
2014-Oct-23 14:33N 47°03' W 085°36'5 9.7
2014-Oct-23 14:00N 47°06' W 085°42'716.3 150 / 121015.010.8 1.0 8.0
2014-Oct-23 13:33N 47°08' W 085°52'1312.5
2014-Oct-23 12:33N 47°15' W 086°08'7210.9
2014-Oct-23 06:00N 48°00' W 087°30'   150 / 151016.010.8 1.5 8.0

Dump ship's entire track history